Impacts TAF Board
For situational awareness. Not to be used for flight planning purposes.
IDs:

KCVG - Cincinnati Intl, KY, US

Issued at 1457 UTC 20 Nov 2018
Updated at 1642 UTC 20 Nov 2018
Potential Impact None Slight Moderate High
Time<<21/17Z 21/18Z 21/19Z 21/20Z 21/21Z 21/22Z 21/23Z 22/00Z 22/01Z 22/02Z 22/03Z 22/04Z 22/05Z
Type PRVL
VIS >6
CIG 70
Cover BKN
FltCat VFR
WX --
WDir 250
WSpd 10
WGst --
Raw TAF
KCVG 201457Z 2015/2118 28011KT 3SM -DZ SCT008 OVC015
  TEMPO 2015/2017 BKN008 OVC015
  FM201700 29008KT P6SM BKN022
  FM210000 25004KT P6SM SCT030
  FM211000 23006KT P6SM FEW030 BKN090
  FM211400 25010KT P6SM BKN070


METAR Board
Radar Display
Forecast Discussion
For situational awareness. Not to be used for flight planning purposes.